Mississippi Test Facility, Mississippi
Current Conditions -  °F | °C
As of 3:53 AM on Monday 22 Dec 2014 (Local Time) from KGPT Reporting Station
Overcast Overcast  
Wind Chill: 57°   Ceiling: 600
Heat Index: 57°   Visibility: 7mi
Dew Point: 55°   Wind: 5mph
Humidity: 93%   Direction: 80°E
Pressure: 29.87"   Gusts: NA
Location:  30.3112°N, 89.3277°W
Report Text: KGPT 220953Z AUTO 08004KT 7SM OVC006 14/13 A2987 RMK AO2 SLP113 T01390128 TSNO
Loading
Personal Weather Stations






























Interactive Weather Map New forecast layout! Learn more

10-Day Weather Forecast

Advertisements
Track Severe Weather on mobile